Time;durP1;ratioP1;P1;durP2;ratioP2;P2;SDS_P1;SDS_P2;PMS_P1;PMS_P2;Temp;Humidity;BMP_temperature;BMP_pressure;BME280_temperature;BME280_humidity;BME280_pressure;Samples;Min_cycle;Max_cycle;Signal;HPM_P1;HPM_P2
2021/06/19 00:00:34;;;;;;;23.10;21.10;;;;;;;18.73;nan;99157.94;2104448;28;20509;-79
2021/06/19 00:01:35;;;;;;;23.53;21.33;;;;;;;18.73;nan;99158.75;2104250;28;20460;-79
2021/06/19 00:02:37;;;;;;;23.43;21.13;;;;;;;18.73;nan;99155.25;2104359;28;20551;-79
2021/06/19 00:03:39;;;;;;;23.77;21.37;;;;;;;18.70;nan;99155.97;2095221;28;20226;-79
2021/06/19 00:04:40;;;;;;;25.83;22.90;;;;;;;18.66;nan;99152.38;2103609;28;20466;-79
2021/06/19 00:05:41;;;;;;;23.70;21.43;;;;;;;18.65;nan;99151.56;2095575;28;20938;-79
2021/06/19 00:06:42;;;;;;;23.53;21.30;;;;;;;18.58;nan;99152.13;2096027;28;20286;-80
2021/06/19 00:07:44;;;;;;;24.20;22.07;;;;;;;18.58;nan;99154.84;2104585;28;20447;-80
2021/06/19 00:08:45;;;;;;;23.20;21.00;;;;;;;18.58;nan;99154.84;2103576;28;20240;-79
2021/06/19 00:09:46;;;;;;;23.10;20.93;;;;;;;18.56;nan;99153.63;2096079;28;20548;-79
2021/06/19 00:10:47;;;;;;;23.93;21.77;;;;;;;18.54;nan;99151.28;2079640;28;20756;-79
2021/06/19 00:11:50;;;;;;;23.67;21.67;;;;;;;18.51;nan;99145.78;2079307;28;20644;-79
2021/06/19 00:12:51;;;;;;;24.00;21.80;;;;;;;18.51;nan;99151.97;2087748;28;20219;-80
2021/06/19 00:13:53;;;;;;;24.00;21.90;;;;;;;18.52;nan;99158.94;2087382;28;20469;-79
2021/06/19 00:14:54;;;;;;;23.23;21.37;;;;;;;18.50;nan;99160.41;2087887;28;20990;-80
2021/06/19 00:15:56;;;;;;;24.50;22.33;;;;;;;18.49;nan;99159.63;2087832;28;20517;-79
2021/06/19 00:16:57;;;;;;;23.97;21.60;;;;;;;18.44;nan;99157.19;2079512;28;20219;-79
2021/06/19 00:17:58;;;;;;;23.57;21.47;;;;;;;18.45;nan;99157.97;2079426;28;20449;-80
2021/06/19 00:19:01;;;;;;;23.37;21.10;;;;;;;18.41;nan;99151.69;2087907;28;20222;-79
2021/06/19 00:20:04;;;;;;;23.80;21.60;;;;;;;18.43;nan;99154.84;2087876;28;20449;-79
2021/06/19 00:21:05;;;;;;;23.77;21.47;;;;;;;18.41;nan;99157.06;2079593;28;20446;-79
2021/06/19 00:22:07;;;;;;;24.67;22.13;;;;;;;18.33;nan;99140.72;2087819;28;20473;-79
2021/06/19 00:23:08;;;;;;;24.23;22.10;;;;;;;18.38;nan;99150.47;2087116;28;20218;-79
2021/06/19 00:24:10;;;;;;;24.03;21.57;;;;;;;18.35;nan;99149.25;2087862;28;20484;-79
2021/06/19 00:25:12;;;;;;;23.93;21.83;;;;;;;18.35;nan;99157.34;2087494;28;20297;-79
2021/06/19 00:26:14;;;;;;;23.27;21.17;;;;;;;18.32;nan;99151.84;2079624;28;20877;-79
2021/06/19 00:27:16;;;;;;;24.00;21.80;;;;;;;18.31;nan;99147.56;2087767;28;20460;-79
2021/06/19 00:28:18;;;;;;;24.93;22.43;;;;;;;18.29;nan;99149.84;2088391;28;20449;-80
2021/06/19 00:29:19;;;;;;;25.03;22.17;;;;;;;18.30;nan;99154.09;2087627;28;20460;-79
2021/06/19 00:30:22;;;;;;;24.57;22.27;;;;;;;18.28;nan;99148.25;2089159;28;20543;-80
2021/06/19 00:31:22;;;;;;;23.53;21.57;;;;;;;18.30;nan;99152.19;2089316;28;20288;-79
2021/06/19 00:32:24;;;;;;;24.57;22.30;;;;;;;18.28;nan;99148.25;2089220;28;20488;-80
2021/06/19 00:33:25;;;;;;;23.27;21.07;;;;;;;18.28;nan;99148.25;2097627;28;20222;-79
2021/06/19 00:34:27;;;;;;;23.23;20.93;;;;;;;18.24;nan;99152.75;2089929;28;20515;-79
2021/06/19 00:35:29;;;;;;;23.33;21.13;;;;;;;18.25;nan;99146.25;2090099;28;20233;-79
2021/06/19 00:36:29;;;;;;;24.83;22.37;;;;;;;18.19;nan;99147.63;2090141;28;20453;-79
2021/06/19 00:37:31;;;;;;;22.73;20.73;;;;;;;18.21;nan;99142.66;2089236;28;20461;-79
2021/06/19 00:38:32;;;;;;;24.10;21.80;;;;;;;18.21;nan;99142.66;2081166;28;20223;-79
2021/06/19 00:39:34;;;;;;;23.27;20.97;;;;;;;18.21;nan;99148.84;2089400;28;20492;-79
2021/06/19 00:40:35;;;;;;;24.23;21.70;;;;;;;18.19;nan;99144.94;2090105;28;20798;-79
2021/06/19 00:41:37;;;;;;;23.17;20.97;;;;;;;18.17;nan;99141.78;2089993;28;20461;-79
2021/06/19 00:42:39;;;;;;;23.33;21.23;;;;;;;18.17;nan;99147.19;2088655;28;20735;-79
2021/06/19 00:43:41;;;;;;;24.30;22.13;;;;;;;18.13;nan;99135.50;2089194;28;20480;-79
2021/06/19 00:44:42;;;;;;;24.27;21.67;;;;;;;18.16;nan;99142.94;2089907;28;20820;-78
2021/06/19 00:45:44;;;;;;;24.13;21.77;;;;;;;18.13;nan;99138.19;2089209;28;20496;-79
2021/06/19 00:46:49;;;;;;;24.30;21.90;;;;;;;18.09;nan;99132.69;2080983;28;20595;-79
2021/06/19 00:47:51;;;;;;;24.33;22.00;;;;;;;18.14;nan;99131.66;2089247;28;20461;-78
2021/06/19 00:48:51;;;;;;;24.70;22.40;;;;;;;18.15;nan;99141.31;2089228;28;20449;-79
2021/06/19 00:49:53;;;;;;;24.20;21.63;;;;;;;18.11;nan;99135.84;2089225;28;20766;-79
2021/06/19 00:50:54;;;;;;;23.23;21.33;;;;;;;18.12;nan;99139.31;2088897;28;20226;-79
2021/06/19 00:51:56;;;;;;;23.20;21.03;;;;;;;18.13;nan;99136.28;2089008;28;20464;-79
2021/06/19 00:52:57;;;;;;;23.30;21.40;;;;;;;18.11;nan;99138.53;2089159;28;20464;-79
2021/06/19 00:53:58;;;;;;;23.47;21.27;;;;;;;18.12;nan;99139.31;2089149;28;20473;-80
2021/06/19 00:54:59;;;;;;;22.87;21.07;;;;;;;18.10;nan;99136.19;2080706;28;20223;-79
2021/06/19 00:56:02;;;;;;;24.40;22.17;;;;;;;18.07;nan;99133.06;2080863;28;20529;-79
2021/06/19 00:57:03;;;;;;;23.87;21.83;;;;;;;18.01;nan;99123.63;2089251;28;20503;-79
2021/06/19 00:58:06;;;;;;;23.60;21.70;;;;;;;18.05;nan;99134.50;2088843;28;20467;-79
2021/06/19 00:59:09;;;;;;;25.07;22.67;;;;;;;18.04;nan;99128.31;2080614;28;20473;-79
2021/06/19 01:00:11;;;;;;;24.77;22.07;;;;;;;18.10;nan;99130.78;2081085;28;20846;-79
2021/06/19 01:01:12;;;;;;;24.03;21.87;;;;;;;18.11;nan;99127.75;2089088;28;20457;-79
2021/06/19 01:02:14;;;;;;;24.23;21.67;;;;;;;18.13;nan;99130.09;2088968;28;20457;-79
2021/06/19 01:03:15;;;;;;;24.53;21.97;;;;;;;18.12;nan;99133.94;2080835;28;20226;-79
2021/06/19 01:04:17;;;;;;;23.90;21.60;;;;;;;18.11;nan;99125.03;2089075;28;20529;-79
2021/06/19 01:05:17;;;;;;;25.07;22.43;;;;;;;18.04;nan;99122.91;2089779;28;20226;-79
2021/06/19 01:06:19;;;;;;;24.90;22.50;;;;;;;18.11;nan;99132.34;2089020;28;21006;-79
2021/06/19 01:07:20;;;;;;;24.57;22.03;;;;;;;18.08;nan;99125.75;2080884;28;20227;-79
2021/06/19 01:08:22;;;;;;;24.57;22.37;;;;;;;18.07;nan;99124.16;2089131;28;20456;-79
2021/06/19 01:09:22;;;;;;;24.03;21.70;;;;;;;18.04;nan;99127.53;2089432;28;20218;-80
2021/06/19 01:10:24;;;;;;;25.40;23.00;;;;;;;18.03;nan;99125.97;2100026;28;20459;-79
2021/06/19 01:11:26;;;;;;;23.77;21.63;;;;;;;17.99;nan;99127.81;2105590;28;20691;-79
2021/06/19 01:12:28;;;;;;;24.47;22.33;;;;;;;17.98;nan;99129.72;2097306;28;20973;-79
2021/06/19 01:13:30;;;;;;;24.37;22.00;;;;;;;18.01;nan;99129.03;2105655;28;20451;-79
2021/06/19 01:14:33;;;;;;;24.50;22.00;;;;;;;17.99;nan;99130.50;2105555;28;20540;-79
2021/06/19 01:15:34;;;;;;;24.73;22.40;;;;;;;17.98;nan;99132.41;2105807;28;20538;-79
2021/06/19 01:16:36;;;;;;;25.20;22.90;;;;;;;17.97;nan;99125.41;2105539;28;20436;-79
2021/06/19 01:17:37;;;;;;;25.70;23.07;;;;;;;17.94;nan;99126.13;2105688;28;20225;-80
2021/06/19 01:18:38;;;;;;;26.20;22.30;;;;;;;17.97;nan;99132.72;2104942;28;20459;-79
2021/06/19 01:19:39;;;;;;;24.67;22.30;;;;;;;17.94;nan;99133.44;2097178;28;20234;-80
2021/06/19 01:20:41;;;;;;;24.43;22.13;;;;;;;17.92;nan;99130.28;2096291;28;20441;-79
2021/06/19 01:21:42;;;;;;;24.80;22.30;;;;;;;17.91;nan;99126.81;2097237;28;20230;-79
2021/06/19 01:22:46;;;;;;;24.10;21.63;;;;;;;17.90;nan;99129.84;2097136;28;21012;-80
2021/06/19 01:23:47;;;;;;;24.70;22.17;;;;;;;17.85;nan;99120.06;2105406;28;20452;-79
2021/06/19 01:24:51;;;;;;;24.30;22.00;;;;;;;17.85;nan;99128.16;2105247;28;20456;-79
2021/06/19 01:25:53;;;;;;;25.30;23.03;;;;;;;17.83;nan;99116.94;2105643;28;20536;-79
2021/06/19 01:26:53;;;;;;;24.17;22.03;;;;;;;17.76;nan;99112.13;2096812;28;20503;-79
2021/06/19 01:27:56;;;;;;;25.20;22.70;;;;;;;17.77;nan;99112.91;2105491;28;20950;-79
2021/06/19 01:28:58;;;;;;;25.33;23.00;;;;;;;17.82;nan;99123.47;2105378;28;20228;-79
2021/06/19 01:30:02;;;;;;;24.03;21.93;;;;;;;17.78;nan;99117.94;2097361;28;20476;-79
2021/06/19 01:31:03;;;;;;;24.27;21.97;;;;;;;17.76;nan;99124.81;2105578;28;20459;-79
2021/06/19 01:32:05;;;;;;;25.13;22.83;;;;;;;17.74;nan;99121.69;2105500;28;20452;-79
2021/06/19 01:33:08;;;;;;;25.00;22.47;;;;;;;17.77;nan;99126.41;2097195;28;20218;-79
2021/06/19 01:34:10;;;;;;;24.83;22.37;;;;;;;17.75;nan;99126.75;2097080;28;20498;-79
2021/06/19 01:35:11;;;;;;;24.87;22.13;;;;;;;17.73;nan;99120.91;2097035;28;20484;-79
2021/06/19 01:36:13;;;;;;;27.60;22.20;;;;;;;17.72;nan;99123.91;2105533;28;21025;-79
2021/06/19 01:37:16;;;;;;;23.53;21.53;;;;;;;17.70;nan;99123.47;2106283;28;20452;-79
2021/06/19 01:38:18;;;;;;;24.20;21.83;;;;;;;17.71;nan;99114.25;2106118;28;20949;-79
2021/06/19 01:39:21;;;;;;;23.63;21.40;;;;;;;17.68;nan;99114.91;2106204;28;20534;-79
2021/06/19 01:40:25;;;;;;;23.90;21.73;;;;;;;17.68;nan;99114.91;2104675;28;20466;-79
2021/06/19 01:41:28;;;;;;;25.93;23.23;;;;;;;17.65;nan;99111.00;2105006;28;20464;-79
2021/06/19 01:42:29;;;;;;;24.47;22.10;;;;;;;17.71;nan;99108.88;2105123;28;20518;-79
2021/06/19 01:43:31;;;;;;;25.03;22.80;;;;;;;17.67;nan;99107.97;2105016;28;20531;-79
2021/06/19 01:44:33;;;;;;;24.37;22.37;;;;;;;17.66;nan;99117.19;2104731;28;20278;-79
2021/06/19 01:45:35;;;;;;;24.50;22.50;;;;;;;17.67;nan;99105.25;2105575;28;20443;-79
2021/06/19 01:46:39;;;;;;;24.13;22.03;;;;;;;17.62;nan;99110.88;2105176;28;20464;-80
2021/06/19 01:47:41;;;;;;;25.17;22.70;;;;;;;17.56;nan;99104.97;2105146;28;20502;-79
2021/06/19 01:48:42;;;;;;;23.77;21.87;;;;;;;17.52;nan;99107.53;2106256;28;21045;-79
2021/06/19 01:49:45;;;;;;;24.83;22.13;;;;;;;17.53;nan;99105.63;2106081;28;20535;-79
2021/06/19 01:50:45;;;;;;;24.23;22.00;;;;;;;17.55;nan;99114.19;2106196;28;20451;-79
2021/06/19 01:51:47;;;;;;;24.33;22.10;;;;;;;17.53;nan;99117.19;2105167;28;20530;-79
2021/06/19 01:52:49;;;;;;;24.90;22.50;;;;;;;17.46;nan;99098.13;2096971;28;20304;-79
2021/06/19 01:53:52;;;;;;;24.63;22.27;;;;;;;17.55;nan;99116.06;2097012;28;20479;-79
2021/06/19 01:54:53;;;;;;;24.80;22.37;;;;;;;17.46;nan;99117.00;2096885;28;20483;-79
2021/06/19 01:55:56;;;;;;;25.30;23.00;;;;;;;17.51;nan;99116.75;2096233;28;20496;-79
2021/06/19 01:56:57;;;;;;;25.67;23.00;;;;;;;17.52;nan;99120.22;2096413;28;20714;-79
2021/06/19 01:58:00;;;;;;;23.23;21.20;;;;;;;17.51;nan;99122.16;2105496;28;20459;-79
2021/06/19 01:59:01;;;;;;;23.93;21.80;;;;;;;17.47;nan;99120.47;2105155;28;20217;-79
2021/06/19 02:00:06;;;;;;;23.93;21.50;;;;;;;17.46;nan;99125.09;2105497;28;20443;-79
2021/06/19 02:01:09;;;;;;;24.13;21.73;;;;;;;17.45;nan;99128.09;2106206;28;20300;-79
2021/06/19 02:02:11;;;;;;;23.83;21.67;;;;;;;17.41;nan;99125.31;2105602;28;20556;-79
2021/06/19 02:03:11;;;;;;;23.60;21.47;;;;;;;17.41;nan;99128.00;2104921;28;20452;-79
2021/06/19 02:04:13;;;;;;;25.23;22.97;;;;;;;17.40;nan;99126.44;2096460;28;20560;-79
2021/06/19 02:05:15;;;;;;;25.83;23.07;;;;;;;17.35;nan;99128.56;2105484;28;20221;-79
2021/06/19 02:06:18;;;;;;;24.23;21.70;;;;;;;17.33;nan;99123.53;2105228;28;20788;-79
2021/06/19 02:07:18;;;;;;;24.27;21.87;;;;;;;17.44;nan;99130.03;2096299;28;21060;-79
2021/06/19 02:08:21;;;;;;;23.87;21.77;;;;;;;17.47;nan;99123.97;2105369;28;20887;-79
2021/06/19 02:09:21;;;;;;;23.97;21.77;;;;;;;17.59;nan;99131.25;2106087;28;20217;-79
2021/06/19 02:10:26;;;;;;;25.20;22.30;;;;;;;17.66;nan;99127.97;2105844;28;20451;-79
2021/06/19 02:11:28;;;;;;;24.20;22.00;;;;;;;17.52;nan;99112.13;2105623;28;20583;-79
2021/06/19 02:12:30;;;;;;;23.53;21.33;;;;;;;17.51;nan;99121.38;2105159;28;20439;-78
2021/06/19 02:13:31;;;;;;;23.47;21.40;;;;;;;17.47;nan;99121.28;2105337;28;20456;-79
2021/06/19 02:14:32;;;;;;;23.10;20.90;;;;;;;17.41;nan;99111.81;2105914;28;20447;-79
2021/06/19 02:15:33;;;;;;;24.27;22.23;;;;;;;17.41;nan;99113.75;2106066;28;20213;-79
2021/06/19 02:16:35;;;;;;;24.70;22.23;;;;;;;17.40;nan;99121.06;2104949;28;20467;-79
2021/06/19 02:17:37;;;;;;;23.30;21.30;;;;;;;17.47;nan;99115.88;2096748;28;20250;-79
2021/06/19 02:18:38;;;;;;;23.43;21.27;;;;;;;17.56;nan;99117.66;2096735;28;20456;-79
2021/06/19 02:19:39;;;;;;;22.83;20.83;;;;;;;17.66;nan;99122.56;2096734;28;20787;-79
2021/06/19 02:20:41;;;;;;;22.53;20.60;;;;;;;17.63;nan;99120.53;2096692;28;21020;-79
2021/06/19 02:21:42;;;;;;;24.47;22.07;;;;;;;17.70;nan;99129.66;2105178;28;20996;-79
2021/06/19 02:22:44;;;;;;;26.20;22.13;;;;;;;17.65;nan;99121.78;2105057;28;20793;-79
2021/06/19 02:23:45;;;;;;;25.13;22.57;;;;;;;17.55;nan;99121.47;2105149;28;20252;-79
2021/06/19 02:24:46;;;;;;;24.30;22.13;;;;;;;17.53;nan;99119.09;2105977;28;20485;-79
2021/06/19 02:25:51;;;;;;;25.27;22.87;;;;;;;17.43;nan;99112.28;2104735;28;20285;-79
2021/06/19 02:27:09;;;;;;;25.50;22.97;;;;;;;17.42;nan;99115.31;2105133;28;20945;-79
2021/06/19 02:28:11;;;;;;;24.90;22.70;;;;;;;17.42;nan;99121.50;2104449;28;20463;-78
2021/06/19 02:29:12;;;;;;;24.63;22.30;;;;;;;17.29;nan;99114.56;2104885;28;20463;-79
2021/06/19 02:30:15;;;;;;;24.60;22.37;;;;;;;17.34;nan;99121.63;2105748;28;20952;-79
2021/06/19 02:31:16;;;;;;;24.73;22.37;;;;;;;17.24;nan;99110.16;2105922;28;20229;-79
2021/06/19 02:32:17;;;;;;;25.53;23.03;;;;;;;17.24;nan;99112.06;2105317;28;20783;-78
2021/06/19 02:33:18;;;;;;;24.83;22.63;;;;;;;17.25;nan;99121.72;2105109;28;20451;-79
2021/06/19 02:34:20;;;;;;;25.17;22.87;;;;;;;17.20;nan;99117.38;2105021;28;20922;-79
2021/06/19 02:35:23;;;;;;;25.03;22.70;;;;;;;17.20;nan;99121.94;2096647;28;20222;-79
2021/06/19 02:36:25;;;;;;;25.37;22.80;;;;;;;17.15;nan;99117.59;2104831;28;20460;-79
2021/06/19 02:37:25;;;;;;;25.77;23.37;;;;;;;17.12;nan;99126.38;2104992;28;20463;-79
2021/06/19 02:38:27;;;;;;;25.17;22.70;;;;;;;17.12;nan;99125.56;2105073;28;20452;-79
2021/06/19 02:39:28;;;;;;;24.70;22.47;;;;;;;17.08;nan;99128.16;2104370;28;20245;-79
2021/06/19 02:40:30;;;;;;;25.10;22.80;;;;;;;17.04;nan;99129.16;2105141;28;20475;-79
2021/06/19 02:41:31;;;;;;;28.67;23.60;;;;;;;17.00;nan;99120.16;2105819;28;20573;-79
2021/06/19 02:42:34;;;;;;;25.77;23.20;;;;;;;17.01;nan;99124.44;2105525;28;20482;-79
2021/06/19 02:43:35;;;;;;;26.40;23.40;;;;;;;17.00;nan;99125.56;2104771;28;20722;-79
2021/06/19 02:44:37;;;;;;;25.07;22.67;;;;;;;16.95;nan;99124.66;2104991;28;20804;-79
2021/06/19 02:45:38;;;;;;;23.57;21.77;;;;;;;16.99;nan;99126.69;2104418;28;20221;-80
2021/06/19 02:46:40;;;;;;;25.37;22.83;;;;;;;17.00;nan;99123.66;2104847;28;20501;-79
2021/06/19 02:47:42;;;;;;;25.87;23.37;;;;;;;17.05;nan;99131.53;2105692;28;20232;-79
2021/06/19 02:48:44;;;;;;;25.77;23.10;;;;;;;17.07;nan;99126.56;2105692;28;20459;-79
2021/06/19 02:49:45;;;;;;;25.40;23.00;;;;;;;17.01;nan;99124.44;2105652;28;20456;-79
2021/06/19 02:50:47;;;;;;;25.03;22.87;;;;;;;16.95;nan;99119.28;2105663;28;20443;-79
2021/06/19 02:51:48;;;;;;;25.80;23.17;;;;;;;17.00;nan;99128.25;2104343;28;20678;-79
2021/06/19 02:52:49;;;;;;;24.57;22.37;;;;;;;16.97;nan;99123.53;2104343;28;20847;-79
2021/06/19 02:53:50;;;;;;;24.00;21.87;;;;;;;17.01;nan;99121.72;2105785;28;20221;-79
2021/06/19 02:54:52;;;;;;;24.57;22.27;;;;;;;17.02;nan;99126.00;2105671;28;20522;-79
2021/06/19 02:55:55;;;;;;;25.03;22.73;;;;;;;16.99;nan;99132.06;2105185;28;20316;-79
2021/06/19 02:56:57;;;;;;;26.97;24.53;;;;;;;16.91;nan;99117.59;2104640;28;20463;-79
2021/06/19 02:58:00;;;;;;;25.03;22.57;;;;;;;16.89;nan;99117.91;2104877;28;20479;-79
2021/06/19 02:59:02;;;;;;;26.43;24.13;;;;;;;16.90;nan;99118.72;2104137;28;20565;-80
2021/06/19 03:00:04;;;;;;;25.60;23.00;;;;;;;16.91;nan;99122.97;2104901;28;20455;-79
2021/06/19 03:01:08;;;;;;;26.00;23.50;;;;;;;16.99;nan;99130.16;2105595;28;20459;-79
2021/06/19 03:02:09;;;;;;;25.73;23.43;;;;;;;16.93;nan;99124.19;2104182;28;20512;-79
2021/06/19 03:03:11;;;;;;;25.67;23.37;;;;;;;16.92;nan;99122.63;2096092;28;20457;-79
2021/06/19 03:04:13;;;;;;;26.30;23.30;;;;;;;16.96;nan;99128.16;2104687;28;20748;-79
2021/06/19 03:05:17;;;;;;;25.40;22.63;;;;;;;17.05;nan;99125.34;2105524;28;20505;-79
2021/06/19 03:06:18;;;;;;;26.20;23.73;;;;;;;16.99;nan;99126.69;2104754;28;20455;-79
2021/06/19 03:07:20;;;;;;;25.47;23.27;;;;;;;16.98;nan;99131.28;2096434;28;20447;-79
2021/06/19 03:08:20;;;;;;;25.90;23.43;;;;;;;16.93;nan;99126.91;2104858;28;20440;-79
2021/06/19 03:09:22;;;;;;;25.67;22.90;;;;;;;16.99;nan;99132.84;2104764;28;20436;-79
2021/06/19 03:10:24;;;;;;;25.87;23.53;;;;;;;16.98;nan;99135.91;2103905;28;20232;-80
2021/06/19 03:11:26;;;;;;;25.63;23.23;;;;;;;16.94;nan;99131.19;2104891;28;20531;-79
2021/06/19 03:12:27;;;;;;;25.17;22.87;;;;;;;16.85;nan;99130.50;2104727;28;20458;-79
2021/06/19 03:13:30;;;;;;;26.27;23.83;;;;;;;16.87;nan;99141.72;2096357;28;20492;-79
2021/06/19 03:14:31;;;;;;;25.60;23.50;;;;;;;16.88;nan;99137.13;2104957;28;20240;-79
2021/06/19 03:15:33;;;;;;;24.63;22.50;;;;;;;16.89;nan;99142.19;2105582;28;20444;-79
2021/06/19 03:16:35;;;;;;;24.87;22.73;;;;;;;16.90;nan;99146.44;2105501;28;20224;-79
2021/06/19 03:17:37;;;;;;;24.90;22.60;;;;;;;16.90;nan;99141.06;2104485;28;20820;-79
2021/06/19 03:18:38;;;;;;;26.07;22.07;;;;;;;16.98;nan;99131.28;2095642;28;20556;-79
2021/06/19 03:19:40;;;;;;;25.13;22.57;;;;;;;17.04;nan;99139.94;2104678;28;20462;-79
2021/06/19 03:20:40;;;;;;;25.40;23.13;;;;;;;16.97;nan;99129.72;2104579;28;20255;-79
2021/06/19 03:21:44;;;;;;;26.00;23.30;;;;;;;17.04;nan;99140.72;2104804;28;20463;-79
2021/06/19 03:22:46;;;;;;;26.23;23.70;;;;;;;17.04;nan;99148.03;2103766;28;20233;-79
2021/06/19 03:23:48;;;;;;;26.07;23.67;;;;;;;17.01;nan;99135.22;2096462;28;20468;-79
2021/06/19 03:24:49;;;;;;;27.43;24.70;;;;;;;16.94;nan;99133.09;2104609;28;20451;-79
2021/06/19 03:25:51;;;;;;;25.83;23.73;;;;;;;16.92;nan;99133.41;2104548;28;21001;-79
2021/06/19 03:26:52;;;;;;;27.77;25.07;;;;;;;16.89;nan;99136.78;2104745;28;20229;-79
2021/06/19 03:27:54;;;;;;;27.17;24.23;;;;;;;16.87;nan;99146.34;2104655;28;20450;-79
2021/06/19 03:28:56;;;;;;;27.33;24.70;;;;;;;16.84;nan;99136.22;2104170;28;20286;-79
2021/06/19 03:29:58;;;;;;;27.13;24.20;;;;;;;16.86;nan;99144.75;2105517;28;20443;-79
2021/06/19 03:31:00;;;;;;;26.73;24.07;;;;;;;16.83;nan;99140.81;2104411;28;20451;-79
2021/06/19 03:32:01;;;;;;;27.07;24.47;;;;;;;16.81;nan;99142.28;2096162;28;20453;-79
2021/06/19 03:33:03;;;;;;;26.00;23.60;;;;;;;16.79;nan;99139.94;2096135;28;20441;-79
2021/06/19 03:34:05;;;;;;;26.63;24.20;;;;;;;16.80;nan;99132.63;2096243;28;20539;-79
2021/06/19 03:35:08;;;;;;;27.07;24.40;;;;;;;16.84;nan;99142.38;2095628;28;20452;-79
2021/06/19 03:36:10;;;;;;;26.20;23.67;;;;;;;16.84;nan;99142.38;2095931;28;20529;-79
2021/06/19 03:37:11;;;;;;;26.37;23.87;;;;;;;16.86;nan;99145.56;2096289;28;20464;-79
2021/06/19 03:38:13;;;;;;;26.17;23.77;;;;;;;16.86;nan;99142.06;2104538;28;21040;-79
2021/06/19 03:39:16;;;;;;;26.57;23.83;;;;;;;16.87;nan;99139.03;2104390;28;20667;-79
2021/06/19 03:40:18;;;;;;;27.83;24.23;;;;;;;16.86;nan;99140.16;2104561;28;20534;-79
2021/06/19 03:41:19;;;;;;;26.57;24.10;;;;;;;16.88;nan;99143.31;2105357;28;20452;-79
2021/06/19 03:42:21;;;;;;;27.10;24.77;;;;;;;16.87;nan;99139.03;2104452;28;21020;-80
2021/06/19 03:43:23;;;;;;;27.47;24.87;;;;;;;16.91;nan;99153.41;2104443;28;20639;-79
2021/06/19 03:44:26;;;;;;;27.07;24.67;;;;;;;16.92;nan;99149.59;2104041;28;20456;-79
2021/06/19 03:45:34;;;;;;;28.83;24.83;;;;;;;16.94;nan;99149.28;2104545;28;20447;-79
2021/06/19 03:46:35;;;;;;;26.90;24.30;;;;;;;16.89;nan;99141.41;2105370;28;20455;-79
2021/06/19 03:47:37;;;;;;;27.73;24.87;;;;;;;16.95;nan;99148.94;2104008;28;20525;-79
2021/06/19 03:48:38;;;;;;;30.60;24.43;;;;;;;16.94;nan;99147.34;2104227;28;20252;-80
2021/06/19 03:49:40;;;;;;;27.57;24.80;;;;;;;17.05;nan;99149.59;2104032;28;20451;-79
2021/06/19 03:50:41;;;;;;;27.07;24.67;;;;;;;17.04;nan;99151.53;2104473;28;20217;-79
2021/06/19 03:51:43;;;;;;;27.00;24.50;;;;;;;17.06;nan;99151.97;2104444;28;20534;-79
2021/06/19 03:52:44;;;;;;;26.17;23.70;;;;;;;17.06;nan;99153.88;2096245;28;20684;-80
2021/06/19 03:53:46;;;;;;;26.43;23.90;;;;;;;17.09;nan;99158.59;2104532;28;20458;-79
2021/06/19 03:54:47;;;;;;;26.40;23.63;;;;;;;17.08;nan;99147.00;2104483;28;20534;-79
2021/06/19 03:55:49;;;;;;;26.87;23.90;;;;;;;17.14;nan;99155.69;2104665;28;20661;-79
2021/06/19 03:56:50;;;;;;;26.77;24.07;;;;;;;17.13;nan;99154.09;2105291;28;20929;-79
2021/06/19 03:57:53;;;;;;;25.97;23.43;;;;;;;17.20;nan;99160.50;2105301;28;20440;-80
2021/06/19 03:58:54;;;;;;;26.90;24.07;;;;;;;17.20;nan;99154.31;2104018;28;20738;-79
2021/06/19 03:59:57;;;;;;;25.33;23.03;;;;;;;17.28;nan;99155.31;2104583;28;20825;-79
2021/06/19 04:00:58;;;;;;;26.83;24.27;;;;;;;17.36;nan;99160.59;2105238;28;20221;-79
2021/06/19 04:02:00;;;;;;;26.90;24.00;;;;;;;17.31;nan;99152.75;2104373;28;20490;-79
2021/06/19 04:03:02;;;;;;;26.53;23.93;;;;;;;17.35;nan;99161.72;2096063;28;20221;-79
2021/06/19 04:04:04;;;;;;;27.27;24.30;;;;;;;17.36;nan;99146.31;2096159;28;20460;-79
2021/06/19 04:05:06;;;;;;;25.17;22.97;;;;;;;17.40;nan;99153.41;2097004;28;20946;-79
2021/06/19 04:06:08;;;;;;;25.77;23.67;;;;;;;17.41;nan;99144.19;2105914;28;20443;-79
2021/06/19 04:07:09;;;;;;;26.37;23.97;;;;;;;17.46;nan;99157.47;2106145;28;20443;-80
2021/06/19 04:08:11;;;;;;;25.30;23.17;;;;;;;17.48;nan;99149.81;2106165;28;20463;-80
2021/06/19 04:09:12;;;;;;;25.90;23.53;;;;;;;17.53;nan;99146.88;2106826;28;20569;-79
2021/06/19 04:10:15;;;;;;;25.40;23.27;;;;;;;17.53;nan;99135.28;2105754;28;20451;-79
2021/06/19 04:11:16;;;;;;;27.03;24.60;;;;;;;17.58;nan;99147.78;2097967;28;20453;-79
2021/06/19 04:12:18;;;;;;;26.53;24.00;;;;;;;17.57;nan;99138.13;2106257;28;20501;-79
2021/06/19 04:13:19;;;;;;;27.00;24.80;;;;;;;17.57;nan;99146.22;2106047;28;20611;-79
2021/06/19 04:14:20;;;;;;;25.67;23.57;;;;;;;17.53;nan;99141.47;2106092;28;20448;-79
2021/06/19 04:15:23;;;;;;;25.83;23.47;;;;;;;17.55;nan;99141.16;2106887;28;20521;-79
2021/06/19 04:16:24;;;;;;;26.33;23.87;;;;;;;17.55;nan;99141.16;2106512;28;20224;-79
2021/06/19 04:17:26;;;;;;;26.43;23.93;;;;;;;17.57;nan;99144.28;2106946;28;21029;-79
2021/06/19 04:18:28;;;;;;;25.93;23.63;;;;;;;17.58;nan;99142.38;2106046;28;20225;-80
2021/06/19 04:19:28;;;;;;;25.90;23.70;;;;;;;17.58;nan;99153.97;2097809;28;20801;-79
2021/06/19 04:20:31;;;;;;;26.10;23.63;;;;;;;17.60;nan;99140.91;2106222;28;20468;-79
2021/06/19 04:21:32;;;;;;;25.97;23.70;;;;;;;17.76;nan;99149.13;2106951;28;20580;-79
2021/06/19 04:22:33;;;;;;;26.57;24.43;;;;;;;17.79;nan;99153.81;2106161;28;20527;-79
2021/06/19 04:23:35;;;;;;;28.20;25.33;;;;;;;17.79;nan;99143.03;2097669;28;20707;-79
2021/06/19 04:24:37;;;;;;;27.60;24.70;;;;;;;17.82;nan;99147.75;2106067;28;20452;-79
2021/06/19 04:25:37;;;;;;;26.60;24.20;;;;;;;17.83;nan;99149.31;2104985;28;20455;-79
2021/06/19 04:26:39;;;;;;;26.03;23.70;;;;;;;17.86;nan;99143.22;2097230;28;20557;-79
2021/06/19 04:27:42;;;;;;;25.97;23.77;;;;;;;17.93;nan;99151.53;2097571;28;20234;-80
2021/06/19 04:28:44;;;;;;;26.07;23.67;;;;;;;17.99;nan;99158.28;2097769;28;20448;-79
2021/06/19 04:29:46;;;;;;;27.30;24.87;;;;;;;17.96;nan;99142.75;2097584;28;20934;-80
2021/06/19 04:30:49;;;;;;;26.90;24.40;;;;;;;18.05;nan;99151.50;2105939;28;20443;-79
2021/06/19 04:31:50;;;;;;;28.43;23.97;;;;;;;18.06;nan;99147.66;2106673;28;20796;-79
2021/06/19 04:32:53;;;;;;;26.73;24.23;;;;;;;18.03;nan;99147.56;2106028;28;20485;-79
2021/06/19 04:33:54;;;;;;;26.27;23.93;;;;;;;18.05;nan;99146.09;2105276;28;20467;-80
2021/06/19 04:34:55;;;;;;;26.20;23.77;;;;;;;18.05;nan;99146.09;2106073;28;20439;-80
2021/06/19 04:35:56;;;;;;;24.97;22.63;;;;;;;18.08;nan;99153.53;2113884;28;20286;-79
2021/06/19 04:36:58;;;;;;;26.50;23.83;;;;;;;18.07;nan;99154.66;2105955;28;22700;-79
2021/06/19 04:37:59;;;;;;;26.27;23.53;;;;;;;18.12;nan;99148.22;2097489;28;20226;-79
2021/06/19 04:39:01;;;;;;;26.80;24.30;;;;;;;18.15;nan;99147.50;2097593;28;20456;-79
2021/06/19 04:40:08;;;;;;;26.17;23.80;;;;;;;18.16;nan;99153.72;2106006;28;20443;-80
2021/06/19 04:41:12;;;;;;;26.00;23.80;;;;;;;18.19;nan;99150.31;2106385;28;20972;-79
2021/06/19 04:42:15;;;;;;;27.03;24.67;;;;;;;18.26;nan;99137.81;2106564;28;20808;-79
2021/06/19 04:43:23;;;;;;;27.27;24.70;;;;;;;18.34;nan;99147.69;2106554;28;20933;-79
2021/06/19 04:44:39;;;;;;;28.33;25.50;;;;;;;18.27;nan;99133.19;2106272;28;20459;-79
2021/06/19 04:45:42;;;;;;;34.33;24.53;;;;;;;18.28;nan;99130.13;2105393;28;20462;-79
2021/06/19 04:46:44;;;;;;;26.03;23.73;;;;;;;18.38;nan;99142.34;2105663;28;20452;-79
2021/06/19 04:47:46;;;;;;;27.27;23.90;;;;;;;18.40;nan;99137.38;2105714;28;20439;-79
2021/06/19 04:48:47;;;;;;;25.37;23.00;;;;;;;18.41;nan;99136.25;2097355;28;20517;-79
2021/06/19 04:49:48;;;;;;;25.13;23.03;;;;;;;18.41;nan;99130.06;2105918;28;20443;-79
2021/06/19 04:50:52;;;;;;;26.07;23.23;;;;;;;18.44;nan;99132.88;2105806;28;20218;-79
2021/06/19 04:51:53;;;;;;;25.30;23.03;;;;;;;18.47;nan;99137.56;2105564;28;20466;-80